Have a Safe July 4th! 

Flight Track Log - Related Links

Times and Time Zones

All times are in EDT time to prevent confusion due to time zone crossing. See the LOF3416 flight status page for this flight to view local times or setup timezone preferences in your user account.

Time Position Orientation Groundspeed Altitude Reporting Facility
EDT Latitude Longitude Course Direction KTS MPH feet Rate Location/Type
Sat 09:18:00 PM 41.8314 -87.9618 194° South  Level FlightAware Approximate
Sat 09:25:00 PM 41.1210 -88.2951 199° South  Level FlightAware Approximate
Sat 09:26:00 PM 41.0188 -88.3415 199° South  Level FlightAware Approximate
Sat 09:27:00 PM 40.9166 -88.3880 199° South  Level FlightAware Approximate
Sat 09:28:00 PM 40.8144 -88.4343 198° South  Level FlightAware Approximate
Sat 09:29:00 PM 40.7116 -88.4784 198° South  Level FlightAware Approximate
Sat 09:30:00 PM 40.6104 -88.5282 201° Southwest  Level FlightAware Approximate
Sat 09:31:00 PM 40.5078 -88.5729 198° South  Level FlightAware Approximate
Sat 09:32:00 PM 40.4051 -88.6169 198° South  Level FlightAware Approximate
Sat 09:33:00 PM 40.3084 -88.6772 224° Southwest  Level FlightAware Approximate
Sat 09:34:00 PM 40.2308 -88.7757 224° Southwest  Level FlightAware Approximate
Sat 09:35:00 PM 40.1530 -88.8740 224° Southwest  Level FlightAware Approximate
Sat 09:36:00 PM 40.0753 -88.9721 224° Southwest  Level FlightAware Approximate
Sat 09:37:00 PM 39.9974 -89.0699 223° Southwest  Level FlightAware Approximate
Sat 09:38:00 PM 39.9189 -89.1668 223° Southwest  Level FlightAware Approximate
Sat 09:39:00 PM 39.8404 -89.2635 223° Southwest  Level FlightAware Approximate
Sat 09:40:00 PM 39.7617 -89.3599 223° Southwest  Level FlightAware Approximate
Sat 09:41:00 PM 39.6830 -89.4562 223° Southwest  Level FlightAware Approximate
Sat 09:42:00 PM 39.6042 -89.5522 223° Southwest  Level FlightAware Approximate
Sat 09:43:00 PM 39.5254 -89.6480 223° Southwest  Level FlightAware Approximate
Sat 09:44:00 PM 39.4464 -89.7436 223° Southwest  Level FlightAware Approximate
Sat 09:45:00 PM 39.3674 -89.8389 223° Southwest  Level FlightAware Approximate
Sat 09:46:00 PM 39.2883 -89.9341 223° Southwest  Level FlightAware Approximate
Sat 09:47:00 PM 39.2094 -90.0294 224° Southwest  Level FlightAware Approximate
Sat 09:48:00 PM 39.1310 -90.1253 224° Southwest  Level FlightAware Approximate
Sat 09:49:00 PM 39.0525 -90.2210 223° Southwest  Level FlightAware Approximate
Sat 09:50:00 PM 38.9740 -90.3165 223° Southwest  Level FlightAware Approximate
Sat 09:51:00 PM 38.8954 -90.4118 223° Southwest  Level FlightAware Approximate
Sat 09:52:00 PM 38.8255 -90.5162 238° Southwest  Level FlightAware Approximate
Sat 09:53:00 PM 38.7674 -90.6332 238° Southwest  Level FlightAware Approximate
Sat 09:54:00 PM 38.7092 -90.7499 237° Southwest  Level FlightAware Approximate
Sat 09:55:00 PM 38.6509 -90.8664 237° Southwest  Level FlightAware Approximate
Sat 09:56:00 PM 38.5925 -90.9828 237° Southwest  Level FlightAware Approximate
Sat 09:57:00 PM 38.5340 -91.0990 237° Southwest  Level FlightAware Approximate
Sat 09:58:00 PM 38.4759 -91.2153 238° Southwest  Level FlightAware Approximate
Sat 09:59:00 PM 38.4178 -91.3317 238° Southwest  Level FlightAware Approximate
Sat 10:00:00 PM 38.3597 -91.4479 237° Southwest  Level FlightAware Approximate
Sat 10:01:00 PM 38.3014 -91.5639 237° Southwest  Level FlightAware Approximate
Sat 10:02:00 PM 38.2343 -91.6718 232° Southwest  Level FlightAware Approximate
Sat 10:03:00 PM 38.1785 -91.7890 241° Southwest  Level FlightAware Approximate
Sat 10:04:00 PM 38.1220 -91.9060 238° Southwest  Level FlightAware Approximate
Sat 10:05:00 PM 38.0591 -92.0176 234° Southwest  Level FlightAware Approximate
Sat 10:06:00 PM 37.9956 -92.1286 234° Southwest  Level FlightAware Approximate
Sat 10:07:00 PM 37.9346 -92.2417 236° Southwest  Level FlightAware Approximate
Sat 10:08:00 PM 37.8740 -92.3551 236° Southwest  Level FlightAware Approximate
Sat 10:09:00 PM 37.8152 -92.4698 238° Southwest  Level FlightAware Approximate
Sat 10:10:00 PM 37.7574 -92.5854 238° Southwest  Level FlightAware Approximate
Sat 10:11:00 PM 37.6924 -92.6834 240° Southwest  Level FlightAware Approximate
Sat 10:12:00 PM 37.6386 -92.8018 240° Southwest  Level FlightAware Approximate
Sat 10:13:00 PM 37.5774 -92.9139 232° Southwest  Level FlightAware Approximate
Sat 10:14:00 PM 37.5112 -93.0215 232° Southwest  Level FlightAware Approximate
Sat 10:15:00 PM 37.4514 -93.1345 241° Southwest  Level FlightAware Approximate
Sat 10:16:00 PM 37.3981 -93.2529 230° Southwest  Level FlightAware Approximate
Sat 10:17:00 PM 37.3235 -93.3439 198° South  Level FlightAware Approximate
Sat 10:18:00 PM 37.2457 -93.3886 202° Southwest  Level Estimated
Sat 10:19:00 PM 37.2457 -93.3886 202° Southwest  Level Estimated
Sat 10:20:00 PM 37.2457 -93.3886 202° Southwest  Level Estimated
Sat 10:21:00 PM 37.2457 -93.3886 202° Southwest  Level Estimated
Sat 10:22:00 PM 37.2457 -93.3886 202° Southwest  Level Estimated
Sat 10:23:00 PM 37.2457 -93.3886 202° Southwest  Level Estimated
Sat 10:24:00 PM 37.2457 -93.3886 202° Southwest  Level Estimated

Login

Don't have an account? Register now (free) for customized features, flight alerts, and more!